Time;durP1;ratioP1;P1;durP2;ratioP2;P2;SDS_P1;SDS_P2;PMS_P1;PMS_P2;Temp;Humidity;BMP_temperature;BMP_pressure;BME280_temperature;BME280_humidity;BME280_pressure;Samples;Min_cycle;Max_cycle;Signal;HPM_P1;HPM_P2
2023/05/04 00:01:52;;;;;;;14.45;5.70;;;5.50;99.90;;;;;;5010316;28;20053;-67
2023/05/04 00:04:18;;;;;;;11.73;5.93;;;5.50;99.90;;;;;;4993572;28;20602;-67
2023/05/04 00:06:44;;;;;;;13.63;6.30;;;5.50;99.90;;;;;;5008988;28;20060;-67
2023/05/04 00:09:12;;;;;;;10.73;6.07;;;5.40;99.90;;;;;;5025332;28;20041;-67
2023/05/04 00:11:38;;;;;;;13.75;5.68;;;5.40;99.90;;;;;;5008777;28;20535;-67
2023/05/04 00:14:07;;;;;;;11.95;5.78;;;5.40;99.90;;;;;;5025438;28;20064;-67
2023/05/04 00:16:34;;;;;;;13.07;6.35;;;5.30;99.90;;;;;;5008755;28;20072;-67
2023/05/04 00:19:00;;;;;;;16.38;6.57;;;5.30;99.90;;;;;;5025994;28;20036;-67
2023/05/04 00:21:26;;;;;;;13.07;6.10;;;5.30;99.90;;;;;;5025481;28;20041;-67
2023/05/04 00:23:51;;;;;;;8.23;5.60;;;5.20;99.90;;;;;;5008380;28;20064;-67
2023/05/04 00:26:17;;;;;;;11.63;6.30;;;5.20;99.90;;;;;;5025232;28;20702;-67
2023/05/04 00:28:43;;;;;;;13.75;5.95;;;5.20;99.90;;;;;;5004306;28;20124;-67
2023/05/04 00:31:08;;;;;;;11.68;6.18;;;5.10;99.90;;;;;;5025616;28;20037;-67
2023/05/04 00:33:34;;;;;;;13.82;6.75;;;5.10;99.90;;;;;;5008674;28;20076;-67
2023/05/04 00:36:02;;;;;;;9.98;6.00;;;5.10;99.90;;;;;;5006635;28;20044;-67
2023/05/04 00:38:28;;;;;;;10.95;6.07;;;5.10;99.90;;;;;;5024834;28;20510;-67
2023/05/04 00:40:54;;;;;;;11.82;5.75;;;5.10;99.90;;;;;;5007537;28;20037;-67
2023/05/04 00:43:20;;;;;;;12.73;6.53;;;5.00;99.90;;;;;;5026549;28;20029;-67
2023/05/04 00:45:51;;;;;;;13.63;7.07;;;5.00;99.90;;;;;;5009900;28;20466;-67
2023/05/04 00:48:17;;;;;;;15.40;6.00;;;4.90;99.90;;;;;;5007674;28;20037;-67
2023/05/04 00:50:43;;;;;;;10.95;5.97;;;4.90;99.90;;;;;;5009179;28;20103;-67
2023/05/04 00:53:10;;;;;;;8.25;5.55;;;4.80;99.90;;;;;;5025743;28;20398;-67
2023/05/04 00:55:39;;;;;;;14.95;5.90;;;4.80;99.90;;;;;;5023545;28;20037;-67
2023/05/04 00:58:06;;;;;;;10.88;6.38;;;4.80;99.90;;;;;;5025441;28;20068;-67
2023/05/04 01:00:31;;;;;;;8.43;6.25;;;4.70;99.90;;;;;;5023033;28;20044;-67
2023/05/04 01:02:57;;;;;;;9.85;5.72;;;4.70;99.90;;;;;;5024442;28;20029;-67
2023/05/04 01:05:25;;;;;;;10.50;5.75;;;4.60;99.90;;;;;;5021904;28;20064;-67
2023/05/04 01:08:14;;;;;;;12.48;6.03;;;4.60;99.90;;;;;;5017654;28;20140;-67
2023/05/04 01:10:51;;;;;;;13.75;7.00;;;4.60;99.90;;;;;;5021192;28;20058;-67
2023/05/04 01:13:21;;;;;;;10.95;5.90;;;4.50;99.90;;;;;;5024552;28;20057;-67
2023/05/04 01:15:48;;;;;;;12.93;6.63;;;4.50;99.90;;;;;;5024220;28;20060;-67
2023/05/04 01:18:15;;;;;;;11.27;6.72;;;4.50;99.90;;;;;;5008900;28;20048;-67
2023/05/04 01:20:41;;;;;;;9.35;5.75;;;4.60;99.90;;;;;;5025330;28;20033;-67
2023/05/04 01:23:07;;;;;;;10.90;6.28;;;4.50;99.90;;;;;;5006566;28;20041;-67
2023/05/04 01:25:43;;;;;;;10.25;6.43;;;4.50;99.90;;;;;;5008174;28;20490;-67
2023/05/04 01:28:17;;;;;;;11.68;6.97;;;4.40;99.90;;;;;;5005838;28;20080;-67
2023/05/04 01:30:44;;;;;;;9.25;5.60;;;4.40;99.90;;;;;;5022962;28;20052;-67
2023/05/04 01:33:10;;;;;;;10.25;6.82;;;4.40;99.90;;;;;;5007328;28;20510;-67
2023/05/04 01:35:37;;;;;;;12.23;7.05;;;4.40;99.90;;;;;;5022685;28;20502;-67
2023/05/04 01:38:03;;;;;;;10.60;6.70;;;4.40;99.90;;;;;;5004318;28;20049;-67
2023/05/04 01:40:28;;;;;;;15.10;7.13;;;4.40;99.90;;;;;;5024487;28;20059;-67
2023/05/04 01:42:54;;;;;;;12.48;6.35;;;4.30;99.90;;;;;;5023930;28;20482;-67
2023/05/04 01:45:20;;;;;;;15.27;6.65;;;4.40;99.90;;;;;;4992339;28;20216;-67
2023/05/04 01:47:46;;;;;;;12.63;7.07;;;4.40;99.90;;;;;;5007478;28;20072;-67
2023/05/04 01:50:12;;;;;;;10.55;6.80;;;4.40;99.90;;;;;;5008578;28;20049;-67
2023/05/04 01:52:38;;;;;;;12.90;7.03;;;4.40;99.90;;;;;;4994227;28;20134;-67
2023/05/04 01:55:04;;;;;;;12.60;6.90;;;4.40;99.90;;;;;;5026881;28;20148;-67
2023/05/04 01:57:29;;;;;;;12.15;7.20;;;4.40;99.90;;;;;;5004949;28;20475;-67
2023/05/04 01:59:55;;;;;;;13.68;7.15;;;4.40;99.90;;;;;;5009843;28;20128;-67
2023/05/04 02:02:21;;;;;;;15.27;7.50;;;4.40;99.90;;;;;;4985596;28;20037;-67
2023/05/04 02:04:46;;;;;;;12.52;7.03;;;4.40;99.90;;;;;;5010597;28;20037;-67
2023/05/04 02:07:12;;;;;;;11.32;6.88;;;4.40;99.90;;;;;;5009261;28;20149;-67
2023/05/04 02:09:38;;;;;;;10.23;6.82;;;4.40;99.90;;;;;;5027574;28;20041;-67
2023/05/04 02:12:04;;;;;;;12.30;7.03;;;4.40;99.90;;;;;;5009917;28;20061;-67
2023/05/04 02:14:29;;;;;;;10.20;6.25;;;4.40;99.90;;;;;;5027101;28;20553;-67
2023/05/04 02:16:55;;;;;;;13.32;8.13;;;4.40;99.90;;;;;;5026800;28;20116;-67
2023/05/04 02:19:21;;;;;;;15.07;6.90;;;4.40;99.90;;;;;;5010369;28;20037;-67
2023/05/04 02:21:47;;;;;;;13.98;6.72;;;4.40;99.90;;;;;;5007910;28;20038;-67
2023/05/04 02:24:13;;;;;;;12.25;7.20;;;4.40;99.90;;;;;;5009839;28;20119;-67
2023/05/04 02:26:39;;;;;;;13.70;6.93;;;4.40;99.90;;;;;;5027707;28;20482;-67
2023/05/04 02:29:05;;;;;;;14.88;7.40;;;4.40;99.90;;;;;;5010101;28;20139;-67
2023/05/04 02:31:34;;;;;;;12.80;7.68;;;4.40;99.90;;;;;;5010294;28;20418;-67
2023/05/04 02:34:00;;;;;;;11.88;7.60;;;4.50;99.90;;;;;;5011252;28;20053;-67
2023/05/04 02:36:26;;;;;;;16.45;7.70;;;4.40;99.90;;;;;;5006654;28;20410;-67
2023/05/04 02:38:53;;;;;;;13.70;7.15;;;4.50;99.90;;;;;;5008268;28;20032;-67
2023/05/04 02:41:19;;;;;;;16.63;7.95;;;4.40;99.90;;;;;;5010341;28;20042;-67
2023/05/04 02:43:45;;;;;;;11.35;6.30;;;4.40;99.90;;;;;;5026212;28;20433;-67
2023/05/04 02:46:10;;;;;;;15.20;7.10;;;4.40;99.90;;;;;;5010772;28;20103;-67
2023/05/04 02:48:36;;;;;;;15.73;7.38;;;4.40;99.90;;;;;;5010922;28;20573;-67
2023/05/04 02:51:02;;;;;;;19.67;8.00;;;4.40;99.90;;;;;;5007688;28;20073;-67
2023/05/04 02:53:28;;;;;;;13.73;7.00;;;4.40;99.90;;;;;;5010498;28;20437;-67
2023/05/04 02:55:53;;;;;;;15.43;7.88;;;4.40;99.90;;;;;;5025996;28;20107;-67
2023/05/04 02:58:19;;;;;;;13.40;7.72;;;4.40;99.90;;;;;;5026163;28;20033;-67
2023/05/04 03:00:45;;;;;;;10.98;7.28;;;4.40;99.90;;;;;;5025283;28;20099;-67
2023/05/04 03:03:11;;;;;;;16.50;7.90;;;4.30;99.90;;;;;;5024503;28;20041;-67
2023/05/04 03:05:37;;;;;;;15.50;8.43;;;4.30;99.90;;;;;;5026284;28;20029;-67
2023/05/04 03:08:03;;;;;;;12.15;7.20;;;4.40;99.90;;;;;;5007961;28;20514;-67
2023/05/04 03:10:28;;;;;;;16.08;7.65;;;4.40;99.90;;;;;;5028881;28;20052;-67
2023/05/04 03:12:54;;;;;;;16.50;8.70;;;4.40;99.90;;;;;;4996756;28;20048;-67
2023/05/04 03:15:20;;;;;;;12.18;7.55;;;4.30;99.90;;;;;;5029294;28;20045;-67
2023/05/04 03:17:46;;;;;;;16.88;8.45;;;4.30;99.90;;;;;;5028968;28;20502;-67
2023/05/04 03:20:12;;;;;;;15.48;8.02;;;4.40;99.90;;;;;;5024724;28;20128;-67
2023/05/04 03:22:37;;;;;;;16.30;7.60;;;4.40;99.90;;;;;;5011615;28;20150;-67
2023/05/04 03:25:04;;;;;;;14.70;8.23;;;4.40;99.90;;;;;;5024517;28;20191;-67
2023/05/04 03:27:30;;;;;;;12.77;7.82;;;4.40;99.90;;;;;;5029255;28;20562;-67
2023/05/04 03:29:56;;;;;;;12.73;7.38;;;4.40;99.90;;;;;;5028911;28;20043;-67
2023/05/04 03:32:21;;;;;;;14.60;7.90;;;4.40;99.90;;;;;;5028615;28;20041;-67
2023/05/04 03:34:47;;;;;;;12.55;6.97;;;4.40;99.90;;;;;;5028705;28;20045;-67
2023/05/04 03:37:13;;;;;;;17.27;7.65;;;4.40;99.90;;;;;;5011149;28;20045;-67
2023/05/04 03:39:38;;;;;;;13.57;8.15;;;4.40;99.90;;;;;;5011974;28;20033;-67
2023/05/04 03:42:04;;;;;;;11.95;7.40;;;4.40;99.90;;;;;;5010968;28;20042;-67
2023/05/04 03:44:30;;;;;;;15.00;7.93;;;4.50;99.90;;;;;;5028612;28;20112;-67
2023/05/04 03:46:55;;;;;;;12.60;7.40;;;4.50;99.90;;;;;;5029310;28;20041;-67
2023/05/04 03:49:21;;;;;;;12.65;7.80;;;4.50;99.90;;;;;;5011664;28;20710;-67
2023/05/04 03:51:47;;;;;;;15.52;7.38;;;4.50;99.90;;;;;;4996279;28;20131;-67
2023/05/04 03:54:13;;;;;;;13.75;8.02;;;4.50;99.90;;;;;;5028364;28;20048;-67
2023/05/04 03:56:38;;;;;;;17.90;8.00;;;4.60;99.90;;;;;;5029254;28;20068;-67
2023/05/04 03:59:04;;;;;;;16.90;8.00;;;4.60;99.90;;;;;;5009674;28;20475;-67
2023/05/04 04:01:30;;;;;;;16.58;8.38;;;4.60;99.90;;;;;;5012962;28;20505;-67
2023/05/04 04:03:55;;;;;;;13.63;8.02;;;4.60;99.90;;;;;;4994241;28;20041;-67
2023/05/04 04:06:22;;;;;;;16.55;8.25;;;4.60;99.90;;;;;;5010402;28;20045;-67
2023/05/04 04:08:47;;;;;;;14.05;8.13;;;4.70;99.90;;;;;;5009388;28;20045;-67
2023/05/04 04:11:13;;;;;;;13.88;7.60;;;4.70;99.90;;;;;;5025684;28;20399;-67
2023/05/04 04:13:39;;;;;;;17.50;7.88;;;4.70;99.90;;;;;;5024427;28;20132;-67
2023/05/04 04:16:05;;;;;;;14.07;8.23;;;4.80;99.90;;;;;;4991937;28;20077;-67
2023/05/04 04:18:31;;;;;;;13.13;7.85;;;4.80;99.90;;;;;;5023492;28;20069;-67
2023/05/04 04:20:57;;;;;;;16.90;8.07;;;4.80;99.90;;;;;;5024756;28;20037;-67
2023/05/04 04:23:23;;;;;;;14.77;8.18;;;4.80;99.90;;;;;;5024231;28;20056;-67
2023/05/04 04:25:50;;;;;;;12.85;7.25;;;4.90;99.90;;;;;;5007623;28;20132;-67
2023/05/04 04:28:15;;;;;;;15.45;7.65;;;4.90;99.90;;;;;;5023690;28;20045;-67
2023/05/04 04:30:41;;;;;;;17.88;8.32;;;4.80;99.90;;;;;;5025758;28;20103;-67
2023/05/04 04:33:08;;;;;;;18.08;7.85;;;4.90;99.90;;;;;;5006081;28;20042;-67
2023/05/04 04:35:33;;;;;;;21.33;8.35;;;4.90;99.90;;;;;;5006523;28;20037;-67
2023/05/04 04:38:00;;;;;;;11.60;7.47;;;4.90;99.90;;;;;;5004618;28;20064;-67
2023/05/04 04:40:25;;;;;;;12.30;7.68;;;4.90;99.90;;;;;;5024160;28;20482;-67
2023/05/04 04:42:51;;;;;;;13.77;7.82;;;5.00;99.90;;;;;;5007042;28;20114;-67
2023/05/04 04:45:19;;;;;;;16.35;7.95;;;5.00;99.90;;;;;;5008507;28;20044;-67
2023/05/04 04:47:44;;;;;;;15.95;8.00;;;5.00;99.90;;;;;;5023858;28;20041;-67
2023/05/04 04:50:10;;;;;;;13.60;7.72;;;5.00;99.90;;;;;;4992707;28;20391;-67
2023/05/04 04:52:37;;;;;;;13.70;8.23;;;5.00;99.90;;;;;;5023057;28;20479;-67
2023/05/04 04:55:03;;;;;;;15.32;8.80;;;5.00;99.90;;;;;;5026237;28;20407;-67
2023/05/04 04:57:29;;;;;;;13.85;7.75;;;5.00;99.90;;;;;;4989632;28;20234;-67
2023/05/04 04:59:56;;;;;;;18.17;9.48;;;5.10;99.90;;;;;;5006165;28;20049;-67
2023/05/04 05:02:22;;;;;;;13.75;8.15;;;5.10;99.90;;;;;;5023885;28;20498;-67
2023/05/04 05:04:48;;;;;;;16.77;8.38;;;5.10;99.90;;;;;;5025160;28;20497;-67
2023/05/04 05:07:14;;;;;;;17.15;8.07;;;5.20;99.90;;;;;;5022275;28;20132;-67
2023/05/04 05:09:40;;;;;;;15.20;7.85;;;5.20;99.90;;;;;;5005846;28;20073;-67
2023/05/04 05:12:06;;;;;;;16.08;8.23;;;5.30;99.90;;;;;;5008155;28;20132;-67
2023/05/04 05:14:32;;;;;;;14.63;8.18;;;5.30;99.90;;;;;;5007659;28;20063;-67
2023/05/04 05:16:58;;;;;;;13.63;8.13;;;5.40;99.90;;;;;;5023328;28;20037;-67
2023/05/04 05:19:24;;;;;;;18.48;8.65;;;5.40;99.90;;;;;;5024064;28;20398;-67
2023/05/04 05:21:51;;;;;;;15.18;8.52;;;5.50;99.90;;;;;;5006433;28;20077;-67
2023/05/04 05:24:17;;;;;;;16.00;8.68;;;5.60;99.90;;;;;;5006063;28;20767;-67
2023/05/04 05:26:42;;;;;;;13.98;8.05;;;5.60;99.90;;;;;;5006529;28;20045;-67
2023/05/04 05:29:08;;;;;;;16.58;8.38;;;5.70;99.90;;;;;;4989025;28;20100;-67
2023/05/04 05:31:34;;;;;;;14.75;8.65;;;5.70;99.90;;;;;;5007976;28;20076;-67
2023/05/04 05:34:00;;;;;;;14.30;8.88;;;5.80;99.90;;;;;;5007831;28;20128;-68
2023/05/04 05:36:26;;;;;;;14.32;8.45;;;5.80;99.90;;;;;;5023062;28;20103;-67
2023/05/04 05:38:52;;;;;;;15.38;9.38;;;5.90;99.90;;;;;;5007387;28;20033;-68
2023/05/04 05:41:18;;;;;;;18.98;9.77;;;5.90;99.90;;;;;;5026224;28;20032;-67
2023/05/04 05:43:44;;;;;;;18.15;8.98;;;6.00;99.90;;;;;;5007270;28;20038;-67
2023/05/04 05:46:12;;;;;;;14.25;7.97;;;6.10;99.90;;;;;;5023635;28;20056;-67
2023/05/04 05:48:37;;;;;;;14.65;8.80;;;6.20;99.90;;;;;;5023957;28;20049;-67
2023/05/04 05:51:03;;;;;;;15.45;8.70;;;6.20;99.90;;;;;;4987365;28;20045;-67
2023/05/04 05:53:29;;;;;;;17.42;9.75;;;6.30;99.90;;;;;;5006746;28;20041;-67
2023/05/04 05:55:55;;;;;;;14.73;9.02;;;6.30;99.90;;;;;;5007827;28;20439;-67
2023/05/04 05:58:20;;;;;;;18.83;9.27;;;6.40;99.90;;;;;;5022851;28;20092;-67
2023/05/04 06:00:47;;;;;;;14.07;8.52;;;6.50;99.90;;;;;;5006274;28;20048;-67
2023/05/04 06:03:13;;;;;;;15.15;8.98;;;6.50;99.90;;;;;;5023147;28;20297;-67
2023/05/04 06:05:39;;;;;;;15.98;8.95;;;6.60;99.90;;;;;;4991050;28;20042;-67
2023/05/04 06:08:05;;;;;;;12.48;8.70;;;6.70;99.90;;;;;;5023144;28;20151;-67
2023/05/04 06:10:30;;;;;;;15.50;8.50;;;6.80;99.90;;;;;;5025255;28;20838;-67
2023/05/04 06:12:56;;;;;;;11.57;7.65;;;6.80;99.90;;;;;;5021031;28;20045;-67
2023/05/04 06:15:22;;;;;;;17.73;8.13;;;6.90;99.90;;;;;;5006892;28;20060;-67
2023/05/04 06:17:48;;;;;;;17.27;8.55;;;7.00;99.90;;;;;;4990753;28;20113;-67
2023/05/04 06:20:14;;;;;;;15.30;9.13;;;7.10;99.90;;;;;;4992326;28;20037;-67
2023/05/04 06:22:40;;;;;;;14.05;8.77;;;7.20;99.90;;;;;;5021910;28;20096;-67
2023/05/04 06:25:06;;;;;;;16.35;9.07;;;7.30;99.90;;;;;;5015159;28;20342;-67
2023/05/04 06:27:32;;;;;;;13.70;8.52;;;7.40;99.90;;;;;;5005570;28;20120;-68
2023/05/04 06:29:58;;;;;;;16.85;8.50;;;7.40;99.90;;;;;;5006971;28;20045;-67
2023/05/04 06:32:24;;;;;;;19.13;8.35;;;7.50;99.90;;;;;;5021910;28;20547;-67
2023/05/04 06:34:54;;;;;;;14.70;8.25;;;7.60;99.90;;;;;;5020572;28;20087;-67
2023/05/04 06:37:20;;;;;;;11.15;7.85;;;7.70;99.90;;;;;;4989941;28;20502;-67
2023/05/04 06:39:46;;;;;;;15.32;8.25;;;7.80;99.90;;;;;;5024632;28;20433;-68
2023/05/04 06:42:12;;;;;;;13.25;7.95;;;7.90;99.90;;;;;;5006779;28;20041;-67
2023/05/04 06:44:38;;;;;;;16.25;8.60;;;8.00;99.90;;;;;;5024004;28;20438;-67
2023/05/04 06:47:06;;;;;;;15.77;7.45;;;8.10;99.90;;;;;;5020839;28;20053;-68
2023/05/04 06:49:32;;;;;;;12.45;7.97;;;8.10;99.90;;;;;;5008666;28;20120;-68
2023/05/04 06:51:58;;;;;;;13.95;8.00;;;8.20;99.90;;;;;;5009470;28;20183;-68
2023/05/04 06:54:24;;;;;;;14.20;7.90;;;8.30;99.90;;;;;;5014508;28;20029;-67
2023/05/04 06:56:50;;;;;;;16.35;8.20;;;8.40;99.90;;;;;;5030616;28;20045;-68
2023/05/04 06:59:19;;;;;;;14.45;8.05;;;8.50;99.90;;;;;;5013655;28;20064;-67
2023/05/04 07:01:48;;;;;;;16.40;7.85;;;8.60;99.90;;;;;;5015341;28;20407;-67
2023/05/04 07:04:21;;;;;;;11.10;7.70;;;8.70;99.90;;;;;;4998991;28;20049;-67
2023/05/04 07:06:51;;;;;;;18.08;7.60;;;8.90;99.90;;;;;;5029649;28;20450;-67
2023/05/04 07:09:18;;;;;;;14.50;8.35;;;9.10;99.90;;;;;;5004534;28;20049;-67
2023/05/04 07:11:44;;;;;;;16.90;8.27;;;9.20;99.90;;;;;;5028844;28;20206;-67
2023/05/04 07:14:10;;;;;;;12.13;7.65;;;9.40;99.90;;;;;;5024287;28;20258;-68
2023/05/04 07:16:36;;;;;;;10.98;7.43;;;9.60;99.90;;;;;;5007979;28;20047;-67
2023/05/04 07:19:03;;;;;;;11.75;7.82;;;10.00;99.90;;;;;;5032193;28;20116;-68
2023/05/04 07:21:29;;;;;;;12.50;7.63;;;10.40;99.90;;;;;;5033774;28;20345;-68
2023/05/04 07:23:55;;;;;;;18.20;8.27;;;10.70;99.90;;;;;;4995866;28;20044;-68
2023/05/04 07:26:21;;;;;;;15.48;7.80;;;11.00;99.90;;;;;;5017935;28;20036;-68
2023/05/04 07:28:47;;;;;;;16.08;7.45;;;11.20;99.90;;;;;;4995633;28;20092;-68
2023/05/04 07:31:14;;;;;;;13.88;7.30;;;11.50;99.90;;;;;;5032848;28;20513;-68
2023/05/04 07:33:41;;;;;;;15.50;7.40;;;11.80;99.90;;;;;;5016824;28;20540;-68
2023/05/04 07:36:07;;;;;;;13.50;7.28;;;12.10;99.90;;;;;;5033163;28;20504;-68
2023/05/04 07:38:32;;;;;;;11.90;7.18;;;12.30;99.90;;;;;;5017664;28;20036;-68
2023/05/04 07:40:58;;;;;;;10.82;7.13;;;12.40;99.90;;;;;;5030150;28;20032;-69
2023/05/04 07:43:24;;;;;;;12.25;7.50;;;12.50;99.90;;;;;;5000981;28;20738;-69
2023/05/04 07:45:52;;;;;;;12.18;6.80;;;12.60;99.90;;;;;;4995654;28;20064;-69
2023/05/04 07:48:18;;;;;;;10.35;6.85;;;12.70;99.90;;;;;;5013281;28;20115;-69
2023/05/04 07:50:45;;;;;;;13.93;7.75;;;12.90;99.90;;;;;;4984533;28;20124;-68
2023/05/04 07:53:11;;;;;;;11.57;7.65;;;13.10;99.90;;;;;;4998221;28;20049;-69
2023/05/04 07:55:37;;;;;;;12.80;7.28;;;13.30;99.90;;;;;;4998370;28;20048;-69
2023/05/04 07:58:03;;;;;;;10.43;6.68;;;13.60;99.90;;;;;;5014858;28;20040;-69
2023/05/04 08:00:29;;;;;;;14.73;7.30;;;13.80;99.90;;;;;;5003225;28;20312;-68
2023/05/04 08:02:54;;;;;;;9.40;6.97;;;14.10;99.90;;;;;;4985182;28;20072;-69
2023/05/04 08:05:20;;;;;;;10.43;6.70;;;14.30;99.90;;;;;;5003212;28;20422;-69
2023/05/04 08:07:46;;;;;;;8.98;5.93;;;14.50;99.90;;;;;;5001041;28;20037;-69
2023/05/04 08:10:12;;;;;;;11.93;6.28;;;14.60;99.90;;;;;;5000858;28;20131;-69
2023/05/04 08:12:39;;;;;;;11.32;6.50;;;14.60;99.20;;;;;;5016022;28;20522;-69
2023/05/04 08:15:06;;;;;;;10.57;6.22;;;14.60;99.00;;;;;;5019465;28;20041;-69
2023/05/04 08:17:33;;;;;;;9.60;6.30;;;14.90;98.90;;;;;;5000298;28;20042;-68
2023/05/04 08:20:00;;;;;;;12.52;5.85;;;14.90;98.90;;;;;;5014293;28;20417;-69
2023/05/04 08:22:26;;;;;;;9.10;6.90;;;15.20;98.30;;;;;;4982732;28;20194;-69
2023/05/04 08:24:51;;;;;;;9.73;7.03;;;15.40;98.40;;;;;;5018596;28;20123;-68
2023/05/04 08:27:20;;;;;;;14.10;5.95;;;15.60;98.20;;;;;;4997030;28;20041;-68
2023/05/04 08:29:45;;;;;;;8.93;5.80;;;16.00;97.80;;;;;;5015700;28;20053;-68
2023/05/04 08:32:11;;;;;;;9.00;6.22;;;16.30;97.60;;;;;;4991255;28;20037;-69
2023/05/04 08:34:37;;;;;;;10.35;6.65;;;16.60;97.20;;;;;;4995985;28;20036;-68
2023/05/04 08:37:03;;;;;;;8.75;6.35;;;16.60;96.90;;;;;;5019809;28;20690;-68
2023/05/04 08:39:29;;;;;;;12.02;6.15;;;16.60;95.80;;;;;;4998620;28;20056;-68
2023/05/04 08:41:55;;;;;;;8.95;6.22;;;16.80;96.60;;;;;;4997724;28;20045;-68
2023/05/04 08:44:21;;;;;;;11.30;6.20;;;16.90;96.60;;;;;;5000590;28;20029;-68
2023/05/04 08:46:52;;;;;;;12.38;6.68;;;16.90;95.50;;;;;;5011597;28;20049;-69
2023/05/04 08:49:23;;;;;;;18.02;6.85;;;16.80;95.90;;;;;;5004508;28;20045;-68
2023/05/04 08:51:50;;;;;;;12.07;6.97;;;16.60;95.30;;;;;;5015891;28;20052;-67
2023/05/04 08:54:17;;;;;;;10.13;6.53;;;16.40;95.60;;;;;;5017446;28;20128;-67
2023/05/04 08:56:44;;;;;;;11.15;6.20;;;16.30;95.60;;;;;;4999906;28;20442;-68
2023/05/04 08:59:21;;;;;;;23.27;6.97;;;16.20;95.30;;;;;;5016178;28;20041;-68
2023/05/04 09:01:51;;;;;;;15.40;5.93;;;16.10;96.00;;;;;;5017507;28;20106;-68
2023/05/04 09:04:18;;;;;;;16.77;6.43;;;16.10;95.60;;;;;;5012908;28;20079;-68
2023/05/04 09:06:46;;;;;;;9.80;6.30;;;16.00;96.30;;;;;;5012524;28;20895;-68
2023/05/04 09:09:12;;;;;;;12.82;6.43;;;16.10;96.40;;;;;;5019190;28;20048;-69
2023/05/04 09:11:39;;;;;;;11.63;6.20;;;16.30;95.60;;;;;;5014510;28;20048;-68
2023/05/04 09:14:05;;;;;;;9.18;6.70;;;16.60;95.70;;;;;;4993077;28;20050;-68
2023/05/04 09:16:37;;;;;;;10.02;5.88;;;17.10;96.50;;;;;;5020511;28;20036;-69
2023/05/04 09:19:15;;;;;;;8.65;5.30;;;17.40;95.10;;;;;;5016093;28;20037;-68
2023/05/04 09:21:40;;;;;;;7.90;5.05;;;17.50;93.70;;;;;;5014231;28;20045;-68
2023/05/04 09:24:06;;;;;;;8.55;5.80;;;17.80;93.70;;;;;;5002211;28;20033;-68
2023/05/04 09:26:33;;;;;;;10.02;5.20;;;18.10;92.90;;;;;;5017423;28;20231;-68
2023/05/04 09:29:12;;;;;;;10.73;5.47;;;18.30;92.00;;;;;;5013601;28;20576;-68
2023/05/04 09:31:57;;;;;;;12.88;5.65;;;18.70;92.20;;;;;;5016525;28;20127;-68
2023/05/04 09:34:23;;;;;;;5.10;4.53;;;18.80;90.60;;;;;;5012625;28;20560;-68
2023/05/04 09:37:02;;;;;;;15.82;6.35;;;19.10;91.20;;;;;;5009516;28;20033;-64
2023/05/04 09:39:29;;;;;;;11.68;5.15;;;18.90;90.30;;;;;;4997632;28;21524;-65
2023/05/04 09:41:55;;;;;;;10.82;5.65;;;19.00;90.50;;;;;;5011561;28;20401;-65
2023/05/04 09:44:22;;;;;;;10.00;5.03;;;19.20;90.30;;;;;;5013260;28;20037;-65
2023/05/04 09:46:55;;;;;;;8.32;5.53;;;19.00;89.70;;;;;;5009280;28;20628;-65
2023/05/04 09:49:35;;;;;;;13.13;4.93;;;18.90;90.20;;;;;;5012006;28;20044;-65
2023/05/04 09:52:03;;;;;;;17.80;6.03;;;18.90;91.00;;;;;;5009644;28;20038;-65
2023/05/04 09:54:33;;;;;;;11.90;5.82;;;19.00;90.80;;;;;;5018368;28;20037;-65
2023/05/04 09:57:14;;;;;;;9.00;5.72;;;19.00;90.30;;;;;;5024219;28;20065;-65
2023/05/04 09:59:41;;;;;;;8.25;6.28;;;18.90;89.30;;;;;;5026645;28;20395;-65
2023/05/04 10:02:07;;;;;;;7.22;4.90;;;19.00;89.90;;;;;;5041961;28;20041;-65
2023/05/04 10:04:35;;;;;;;10.35;5.57;;;19.00;89.10;;;;;;5026737;28;20580;-64
2023/05/04 10:07:05;;;;;;;9.35;5.70;;;19.10;88.80;;;;;;5024954;28;20063;-65
2023/05/04 10:09:32;;;;;;;11.55;6.00;;;19.40;89.60;;;;;;5025881;28;20049;-65
2023/05/04 10:12:05;;;;;;;10.80;4.70;;;19.70;89.90;;;;;;5028234;28;20136;-65
2023/05/04 10:14:35;;;;;;;7.20;5.10;;;19.70;88.30;;;;;;5026595;28;20053;-65
2023/05/04 10:17:11;;;;;;;7.50;4.53;;;19.80;86.60;;;;;;5028474;28;20045;-65
2023/05/04 10:19:49;;;;;;;10.75;4.85;;;20.10;88.10;;;;;;5026237;28;20104;-65
2023/05/04 10:22:28;;;;;;;8.52;5.20;;;19.90;85.80;;;;;;5028396;28;20064;-65
2023/05/04 10:25:18;;;;;;;6.03;4.68;;;19.60;83.50;;;;;;5028419;28;20127;-65
2023/05/04 10:28:00;;;;;;;8.30;4.68;;;19.90;86.20;;;;;;5026093;28;20037;-65
2023/05/04 10:30:26;;;;;;;7.27;4.70;;;20.00;84.70;;;;;;5029200;28;20048;-65
2023/05/04 10:32:56;;;;;;;9.32;4.70;;;20.00;83.90;;;;;;5035342;28;20497;-65
2023/05/04 10:35:23;;;;;;;6.53;4.68;;;20.10;84.30;;;;;;5052230;28;20029;-65
2023/05/04 10:37:55;;;;;;;5.68;4.43;;;20.10;85.00;;;;;;5051485;28;20037;-65
2023/05/04 10:40:36;;;;;;;;;;;20.30;84.70;;;;;;5035515;28;20045;-65
2023/05/04 10:43:03;;;;;;;5.70;4.20;;;20.30;82.90;;;;;;5031994;28;19917;-67
2023/05/04 10:45:41;;;;;;;5.63;4.63;;;20.20;83.40;;;;;;5017823;28;20433;-66
2023/05/04 10:48:08;;;;;;;7.28;4.40;;;20.30;81.80;;;;;;5022509;28;20486;-66
2023/05/04 10:50:42;;;;;;;9.40;4.35;;;20.40;82.90;;;;;;5034640;28;20394;-63
2023/05/04 10:53:08;;;;;;;9.23;3.75;;;20.50;81.70;;;;;;5046662;28;20033;-63
2023/05/04 10:55:42;;;;;;;8.00;4.13;;;20.50;81.80;;;;;;5052261;28;20108;-63
2023/05/04 10:58:09;;;;;;;9.18;4.55;;;20.60;82.00;;;;;;5038454;28;20090;-63
2023/05/04 11:00:40;;;;;;;5.55;3.92;;;20.60;82.40;;;;;;5052766;28;20041;-64
2023/05/04 11:03:06;;;;;;;7.97;4.63;;;20.90;81.00;;;;;;5050899;28;20090;-64
2023/05/04 11:05:46;;;;;;;8.75;4.13;;;20.90;81.10;;;;;;5033201;28;20099;-64
2023/05/04 11:08:15;;;;;;;5.95;3.78;;;21.00;77.40;;;;;;5034753;28;20539;-64
2023/05/04 11:10:41;;;;;;;6.70;4.50;;;21.00;77.90;;;;;;5052732;28;20048;-64
2023/05/04 11:13:11;;;;;;;14.43;4.32;;;20.70;76.30;;;;;;5034508;28;20052;-64
2023/05/04 11:15:48;;;;;;;6.65;4.07;;;20.60;73.40;;;;;;5032870;28;20406;-64
2023/05/04 11:18:24;;;;;;;4.85;4.10;;;20.50;76.50;;;;;;5028811;28;20507;-64
2023/05/04 11:20:50;;;;;;;5.13;3.83;;;20.70;78.50;;;;;;5028167;28;20045;-64
2023/05/04 11:23:15;;;;;;;7.43;3.78;;;20.80;78.10;;;;;;5051809;28;20068;-64
2023/05/04 11:25:41;;;;;;;8.35;4.40;;;21.00;76.90;;;;;;5034559;28;20486;-64
2023/05/04 11:28:07;;;;;;;10.38;4.63;;;20.90;76.90;;;;;;5016837;28;20059;-64
2023/05/04 11:30:34;;;;;;;6.68;4.75;;;21.00;77.60;;;;;;5014777;28;20179;-64
2023/05/04 11:33:01;;;;;;;7.43;4.30;;;20.90;77.60;;;;;;5005888;28;20114;-64
2023/05/04 11:35:27;;;;;;;6.00;4.25;;;20.80;75.80;;;;;;5034339;28;20041;-64
2023/05/04 11:37:54;;;;;;;7.35;5.03;;;20.80;77.10;;;;;;5033199;28;20045;-64
2023/05/04 11:40:25;;;;;;;11.13;4.78;;;20.70;76.60;;;;;;5045646;28;20048;-64
2023/05/04 11:43:12;;;;;;;6.97;4.30;;;20.70;77.00;;;;;;5045069;28;20037;-64
2023/05/04 11:45:40;;;;;;;7.45;4.93;;;20.60;75.80;;;;;;4978378;28;20202;-64
2023/05/04 11:48:07;;;;;;;7.70;4.40;;;20.60;76.80;;;;;;4974119;28;20534;-64
2023/05/04 11:50:33;;;;;;;7.72;4.05;;;20.80;78.10;;;;;;4975274;28;20417;-64
2023/05/04 11:53:10;;;;;;;8.43;4.80;;;20.80;76.80;;;;;;4964230;28;20042;-64
2023/05/04 11:55:37;;;;;;;6.72;4.10;;;21.00;77.10;;;;;;4979550;28;20756;-64
2023/05/04 11:58:04;;;;;;;8.18;4.20;;;21.10;77.50;;;;;;4978075;28;20073;-64
2023/05/04 12:00:38;;;;;;;8.57;4.03;;;21.00;76.00;;;;;;4965088;28;20058;-64
2023/05/04 12:03:05;;;;;;;10.75;4.38;;;21.10;74.50;;;;;;4979784;28;20113;-64
2023/05/04 12:05:32;;;;;;;7.18;3.83;;;21.10;74.40;;;;;;4960337;28;20069;-64
2023/05/04 12:07:57;;;;;;;7.68;4.00;;;21.00;75.40;;;;;;4966502;28;20031;-64
2023/05/04 12:10:33;;;;;;;7.93;3.85;;;20.90;73.90;;;;;;4965983;28;20415;-64
2023/05/04 12:13:02;;;;;;;10.25;4.22;;;21.00;75.20;;;;;;4977363;28;20544;-64
2023/05/04 12:15:34;;;;;;;7.75;4.22;;;20.70;73.80;;;;;;4971850;28;21031;-64
2023/05/04 12:17:59;;;;;;;6.63;4.40;;;21.00;73.40;;;;;;5007866;28;20433;-64
2023/05/04 12:20:27;;;;;;;12.18;4.72;;;21.10;74.40;;;;;;5044408;28;20124;-64
2023/05/04 12:22:57;;;;;;;8.07;4.40;;;21.20;75.50;;;;;;5044629;28;20051;-64
2023/05/04 12:25:23;;;;;;;12.25;4.78;;;21.40;73.40;;;;;;5025679;28;20041;-64
2023/05/04 12:27:50;;;;;;;6.22;3.80;;;21.40;71.50;;;;;;5046002;28;20040;-64
2023/05/04 12:30:16;;;;;;;7.97;3.70;;;21.30;71.40;;;;;;5012210;28;20063;-64
2023/05/04 12:32:42;;;;;;;5.30;3.90;;;21.40;72.90;;;;;;5026127;28;20037;-64
2023/05/04 12:35:09;;;;;;;29.25;5.63;;;21.60;73.90;;;;;;5027192;28;20555;-65
2023/05/04 12:37:35;;;;;;;9.43;3.75;;;21.70;73.30;;;;;;5024355;28;20041;-64
2023/05/04 12:40:02;;;;;;;9.15;4.15;;;22.00;73.90;;;;;;5027105;28;20197;-64
2023/05/04 12:42:28;;;;;;;6.03;3.92;;;22.00;73.80;;;;;;5028468;28;20136;-64
2023/05/04 12:44:53;;;;;;;15.10;4.18;;;22.10;72.80;;;;;;5026904;28;20561;-64
2023/05/04 12:47:22;;;;;;;7.97;4.25;;;22.40;72.50;;;;;;5011862;28;20033;-66